Mendota, IL

10:42 PM CDT on March 28, 2015 (GMT -0500)
Northbrook | | Change Station
CLOSE
Current Station
Personal Weather Station
Location: Mendota, IL
Elevation: 778 ft
Nearby Weather Stations
Active Advisory: Special Statement

Elev 778 ft 41.56 °N, 89.12 °W | Updated 13 seconds ago

Clear
Clear
30.4 °F
Feels Like 30 °F
N
1.3
Wind Variable Wind from SSE
Gusts 2.5 mph

Today
High -- | Low -- °F
--% Chance of Precip.
Yesterday
High -- | Low -- °F
Precip. -- in
6:46 AM 7:17 PM
Waxing Gibbous, 68% visible
Pressure 30.28 in
Visibility 10.0 miles
Clouds Clear
Windchill 30 °F
Dew Point 12 °F
Humidity 45%
Rainfall 0.00 in
Snow Depth Not available.
UV 0.0 out of 12
Pollen 4.20 out of 12
Air Quality Not available.
Flu Activity Not available.
METAR KVYS 290315Z AUTO 16007KT 10SM CLR 00/M09 A3028 RMK AO2 T10021095

More Conditions Fewer Conditions

Pressure 30.28 in
Visibility 10.0 miles
Clouds Clear
Windchill 30 °F
Dew Point 12 °F
Humidity 45%
Rainfall 0.00 in
Snow Depth Not available.
UV 0.0 out of 12
Pollen 4.20 out of 12
Air Quality Not available.
Flu Activity Not available.
METAR KVYS 290315Z AUTO 16007KT 10SM CLR 00/M09 A3028 RMK AO2 T10021095

More Conditions Fewer Conditions

10-Day Weather Forecast

Almanac

Astronomy

Mar. 28, 2015 Rise Set
Actual Time
Civil Twilight
Nautical Twilight
Astronomical Twilight
Moon
Length of Visible Light
Length of Day
Tomorrow will be .
, % of the Moon is Illuminated

Today's Extremes

State Highs State Lows

Community

WunderPhotos

Upload Photos

1,809,177 photos uploaded!

WunderBlogs® & News

Nearby

Air Quality

  Air Quality AQ Index Pollutant
Not available.

Snow Depth

Station Depth Elevation

Earthquake Activity

City Distance Mag. Time & Date
Minimum magnitude displayed is 2.5.

Coastal Water Temperatures

Place Temperature

Stations

Nearby Weather Stations

Station Location Temp. Windchill Dew Point Humidity Wind Precip. Elev Updated Type
                   
Special Statement
Statement as of 3:27 PM CDT on March 28, 2015

Moderately strong winds are expected to develop shortly after
daybreak Sunday and last through mid to late afternoon before
tapering. Sustained southwest winds of 20 to 30 mph with gusts to
40 mph are expected. Winds of this magnitude can make driving
difficult... especially for high profile vehicles. Be sure to
secure any loose items left outside.


Bmd